Skjervoeyfisk — LAGH — position and weather

sailwx.info

Track history (hours):
 
Tides and Currents Weather Stations Pressure Air Temp Water Temp Dewpoint Dewpoint Depression Visibility Wind Speed Wind Dir Waves Ship Positions

Skjervoeyfisk

Last reported at 2018-Feb-07 09:23 UTC. Time now 2018-Feb-25 03:19 UTC.
Position N 60°08' E 005°17'.
Warning: this ship's position is 17 days out of date.

Length 38 m; draft 5.4 m.

Type: Fishing. MMSI: 257229000.

Date/timePositionNaut miles runAvg speedWind from/ knotsBaromVisibWave heightAir tempDewpointWater temp
2018-Feb-07 09:23N 60°08' E 005°17'4 8.6
2018-Feb-07 08:58N 60°11' E 005°13'4 8.3
2018-Feb-07 08:30N 60°15' E 005°09'4 8.6
2018-Feb-07 08:00N 60°19' E 005°12'4 8.6
2018-Feb-07 07:30N 60°23' E 005°10'4 8.2
2018-Feb-07 07:00N 60°25' E 005°03'4 8.3
2018-Feb-07 06:30N 60°29' E 004°59'4 8.6
2018-Feb-07 06:00N 60°33' E 004°56'4 8.5
2018-Feb-07 05:30N 60°37' E 004°53'4 8.7
2018-Feb-07 05:00N 60°41' E 004°50'4 8.0
2018-Feb-07 04:30N 60°45' E 004°47'4 8.0
2018-Feb-07 04:00N 60°49' E 004°45'101 6.9
2018-Feb-06 13:21N 62°24' E 005°50'3 9.0
2018-Feb-06 13:00N 62°26' E 005°55'4 8.8
2018-Feb-06 12:30N 62°28' E 006°04'4 8.5
2018-Feb-06 12:00N 62°31' E 006°09'5 9.0
2018-Feb-06 11:30N 62°35' E 006°15'6 8.9
2018-Feb-06 10:51N 62°39' E 006°24'4 9.0
2018-Feb-06 10:23N 62°43' E 006°29'4 9.0
2018-Feb-06 10:00N 62°46' E 006°33'5 9.2
2018-Feb-06 09:30N 62°49' E 006°38'12 8.8
2018-Feb-06 08:10N 62°59' E 006°54'1 8.4
2018-Feb-06 08:00N 62°59' E 006°57'4 8.5
2018-Feb-06 07:30N 63°01' E 007°05'4 8.7
2018-Feb-06 07:00N 63°03' E 007°14'4 8.4
2018-Feb-06 06:29N 63°04' E 007°23'4 8.7
2018-Feb-06 06:00N 63°06' E 007°31'4 7.9
2018-Feb-06 05:30N 63°07' E 007°40'2 4.0
2018-Feb-06 05:00N 63°07' E 007°44'0 0.0
2018-Feb-06 04:30N 63°07' E 007°44'0 0.0
2018-Feb-06 04:00N 63°07' E 007°44'0 0.0
2018-Feb-06 03:30N 63°07' E 007°44'0 0.0
2018-Feb-06 02:59N 63°07' E 007°44'0 0.0
2018-Feb-06 02:30N 63°07' E 007°44'0 0.0
2018-Feb-06 02:00N 63°07' E 007°44'0 0.0
2018-Feb-06 01:30N 63°07' E 007°44'0 0.0
2018-Feb-06 01:00N 63°07' E 007°44'0 0.0
2018-Feb-06 00:30N 63°07' E 007°44'0 0.0
2018-Feb-06 00:00N 63°07' E 007°44'0 0.0
2018-Feb-05 23:28N 63°07' E 007°44'0 0.0
2018-Feb-05 23:00N 63°07' E 007°44'0 0.0
2018-Feb-05 22:30N 63°07' E 007°44'0 0.0
2018-Feb-05 22:00N 63°07' E 007°44'0 0.0
2018-Feb-05 21:30N 63°07' E 007°44'0 0.0
2018-Feb-05 20:59N 63°07' E 007°44'0 0.0
2018-Feb-05 20:30N 63°07' E 007°44'0 0.0
2018-Feb-05 20:00N 63°07' E 007°44'2 3.0
2018-Feb-05 19:30N 63°07' E 007°41'4 8.4
2018-Feb-05 19:00N 63°10' E 007°46'4 8.7
2018-Feb-05 18:30N 63°13' E 007°54'4 8.7
2018-Feb-05 18:00N 63°15' E 008°03'4 8.8
2018-Feb-05 17:30N 63°17' E 008°11'4 8.7
2018-Feb-05 17:00N 63°20' E 008°19'40 8.5
2018-Feb-05 12:16N 63°44' E 009°32'70 7.5
2018-Feb-05 02:58N 64°43' E 010°56'3 7.4
2018-Feb-05 02:30N 64°46' E 011°02'4 8.1
2018-Feb-05 02:00N 64°49' E 011°08'4 8.2
2018-Feb-05 01:30N 64°52' E 011°15'4 7.4
2018-Feb-05 01:00N 64°54' E 011°21'4 8.0
2018-Feb-05 00:30N 64°58' E 011°24'4 8.4
2018-Feb-05 00:00N 65°01' E 011°32'4 8.8
2018-Feb-04 23:30N 65°02' E 011°42'4 8.5
2018-Feb-04 23:00N 65°06' E 011°47'4 8.8
2018-Feb-04 22:30N 65°10' E 011°51'4 8.8
2018-Feb-04 22:00N 65°14' E 011°55'5 8.6
2018-Feb-04 21:26N 65°18' E 011°59'47 7.9
2018-Feb-04 15:30N 66°03' E 012°37'4 8.7
2018-Feb-04 15:00N 66°06' E 012°43'4 8.6
2018-Feb-04 14:30N 66°10' E 012°49'6 8.6
2018-Feb-04 13:51N 66°15' E 012°55'3 8.7
2018-Feb-04 13:30N 66°18' E 012°56'4 8.3
2018-Feb-04 13:00N 66°22' E 012°58'5 8.8
2018-Feb-04 12:30N 66°27' E 012°59'4 8.4
2018-Feb-04 12:00N 66°31' E 012°58'4 7.4
2018-Feb-04 11:30N 66°34' E 013°04'13 8.4
2018-Feb-04 09:59N 66°46' E 013°13'9 8.4
2018-Feb-04 08:58N 66°53' E 013°24'4 7.8
2018-Feb-04 08:25N 66°57' E 013°29'3 8.5
2018-Feb-04 08:00N 66°59' E 013°36'5 9.0
2018-Feb-04 07:30N 67°02' E 013°46'4 9.0
2018-Feb-04 07:00N 67°05' E 013°54'4 8.8
2018-Feb-04 06:30N 67°08' E 014°01'4 8.6
2018-Feb-04 06:01N 67°12' E 014°07'5 9.2
2018-Feb-04 05:30N 67°15' E 014°15'3 6.9
2018-Feb-04 05:00N 67°17' E 014°23'0 0.0
2018-Feb-04 04:30N 67°17' E 014°23'0 0.0
2018-Feb-04 04:00N 67°17' E 014°23'0 0.0
2018-Feb-04 03:30N 67°17' E 014°23'0 0.0
2018-Feb-04 03:00N 67°17' E 014°23'0 0.0
2018-Feb-04 02:30N 67°17' E 014°23'0 0.0
2018-Feb-04 02:00N 67°17' E 014°23'0 0.0
2018-Feb-04 01:30N 67°17' E 014°23'0 0.0
2018-Feb-04 01:00N 67°17' E 014°23'0 0.0
2018-Feb-04 00:30N 67°17' E 014°23'0 0.0
2018-Feb-04 00:01N 67°17' E 014°23'0 0.0
2018-Feb-03 23:30N 67°17' E 014°23'0 0.0
2018-Feb-03 23:00N 67°17' E 014°23'0 0.0
2018-Feb-03 22:30N 67°17' E 014°23'0 0.0
2018-Feb-03 22:00N 67°17' E 014°23'0 0.0
2018-Feb-03 21:30N 67°17' E 014°23'0 0.0
2018-Feb-03 21:00N 67°17' E 014°23'0 0.0
2018-Feb-03 20:30N 67°17' E 014°23'0 0.0
2018-Feb-03 20:00N 67°17' E 014°23'11 7.2
2018-Feb-03 18:30N 67°28' E 014°24'4 8.0
2018-Feb-03 18:01N 67°32' E 014°21'4 8.2
2018-Feb-03 17:30N 67°36' E 014°18'4 8.5
2018-Feb-03 17:00N 67°40' E 014°15'10 8.4
2018-Feb-03 15:49N 67°49' E 014°25'172 7.9
2018-Feb-02 17:55N 69°58' E 019°40'5 6.4
2018-Feb-02 17:05N 70°03' E 019°33'1 7.1
2018-Feb-02 16:59N 70°02' E 019°33'2 4.8
2018-Feb-02 16:30N 69°60' E 019°33'0 0.2
2018-Feb-02 14:30N 69°60' E 019°34'0 0.0
2018-Feb-01 02:42N 69°60' E 019°34'0 0.0
2018-Feb-01 01:56N 69°60' E 019°34'0 0.0
2018-Feb-01 01:26N 69°60' E 019°34'  
Track history (hours):
 
Tides and Currents Weather Stations Pressure Air Temp Water Temp Dewpoint Dewpoint Depression Visibility Wind Speed Wind Dir Waves Ship Positions

Skjervoeyfisk

Last reported at 2018-Feb-07 09:23 UTC. Time now 2018-Feb-25 03:19 UTC.
Position N 60°08' E 005°17'.
Warning: this ship's position is 17 days out of date.

Length 38 m; draft 5.4 m.

Type: Fishing. MMSI: 257229000.

Date/timePositionNaut miles runAvg speedWind from/ knotsBaromVisibWave heightAir tempDewpointWater temp
2018-Feb-07 09:23N 60°08' E 005°17'4 8.6
2018-Feb-07 08:58N 60°11' E 005°13'4 8.3
2018-Feb-07 08:30N 60°15' E 005°09'4 8.6
2018-Feb-07 08:00N 60°19' E 005°12'4 8.6
2018-Feb-07 07:30N 60°23' E 005°10'4 8.2
2018-Feb-07 07:00N 60°25' E 005°03'4 8.3
2018-Feb-07 06:30N 60°29' E 004°59'4 8.6
2018-Feb-07 06:00N 60°33' E 004°56'4 8.5
2018-Feb-07 05:30N 60°37' E 004°53'4 8.7
2018-Feb-07 05:00N 60°41' E 004°50'4 8.0
2018-Feb-07 04:30N 60°45' E 004°47'4 8.0
2018-Feb-07 04:00N 60°49' E 004°45'101 6.9
2018-Feb-06 13:21N 62°24' E 005°50'3 9.0
2018-Feb-06 13:00N 62°26' E 005°55'4 8.8
2018-Feb-06 12:30N 62°28' E 006°04'4 8.5
2018-Feb-06 12:00N 62°31' E 006°09'5 9.0
2018-Feb-06 11:30N 62°35' E 006°15'6 8.9
2018-Feb-06 10:51N 62°39' E 006°24'4 9.0
2018-Feb-06 10:23N 62°43' E 006°29'4 9.0
2018-Feb-06 10:00N 62°46' E 006°33'5 9.2
2018-Feb-06 09:30N 62°49' E 006°38'12 8.8
2018-Feb-06 08:10N 62°59' E 006°54'1 8.4
2018-Feb-06 08:00N 62°59' E 006°57'4 8.5
2018-Feb-06 07:30N 63°01' E 007°05'4 8.7
2018-Feb-06 07:00N 63°03' E 007°14'4 8.4
2018-Feb-06 06:29N 63°04' E 007°23'4 8.7
2018-Feb-06 06:00N 63°06' E 007°31'4 7.9
2018-Feb-06 05:30N 63°07' E 007°40'2 4.0
2018-Feb-06 05:00N 63°07' E 007°44'0 0.0
2018-Feb-06 04:30N 63°07' E 007°44'0 0.0
2018-Feb-06 04:00N 63°07' E 007°44'0 0.0
2018-Feb-06 03:30N 63°07' E 007°44'0 0.0
2018-Feb-06 02:59N 63°07' E 007°44'0 0.0
2018-Feb-06 02:30N 63°07' E 007°44'0 0.0
2018-Feb-06 02:00N 63°07' E 007°44'0 0.0
2018-Feb-06 01:30N 63°07' E 007°44'0 0.0
2018-Feb-06 01:00N 63°07' E 007°44'0 0.0
2018-Feb-06 00:30N 63°07' E 007°44'0 0.0
2018-Feb-06 00:00N 63°07' E 007°44'0 0.0
2018-Feb-05 23:28N 63°07' E 007°44'0 0.0
2018-Feb-05 23:00N 63°07' E 007°44'0 0.0
2018-Feb-05 22:30N 63°07' E 007°44'0 0.0
2018-Feb-05 22:00N 63°07' E 007°44'0 0.0
2018-Feb-05 21:30N 63°07' E 007°44'0 0.0
2018-Feb-05 20:59N 63°07' E 007°44'0 0.0
2018-Feb-05 20:30N 63°07' E 007°44'0 0.0
2018-Feb-05 20:00N 63°07' E 007°44'2 3.0
2018-Feb-05 19:30N 63°07' E 007°41'4 8.4
2018-Feb-05 19:00N 63°10' E 007°46'4 8.7
2018-Feb-05 18:30N 63°13' E 007°54'4 8.7
2018-Feb-05 18:00N 63°15' E 008°03'4 8.8
2018-Feb-05 17:30N 63°17' E 008°11'4 8.7
2018-Feb-05 17:00N 63°20' E 008°19'40 8.5
2018-Feb-05 12:16N 63°44' E 009°32'70 7.5
2018-Feb-05 02:58N 64°43' E 010°56'3 7.4
2018-Feb-05 02:30N 64°46' E 011°02'4 8.1
2018-Feb-05 02:00N 64°49' E 011°08'4 8.2
2018-Feb-05 01:30N 64°52' E 011°15'4 7.4
2018-Feb-05 01:00N 64°54' E 011°21'4 8.0
2018-Feb-05 00:30N 64°58' E 011°24'4 8.4
2018-Feb-05 00:00N 65°01' E 011°32'4 8.8
2018-Feb-04 23:30N 65°02' E 011°42'4 8.5
2018-Feb-04 23:00N 65°06' E 011°47'4 8.8
2018-Feb-04 22:30N 65°10' E 011°51'4 8.8
2018-Feb-04 22:00N 65°14' E 011°55'5 8.6
2018-Feb-04 21:26N 65°18' E 011°59'47 7.9
2018-Feb-04 15:30N 66°03' E 012°37'4 8.7
2018-Feb-04 15:00N 66°06' E 012°43'4 8.6
2018-Feb-04 14:30N 66°10' E 012°49'6 8.6
2018-Feb-04 13:51N 66°15' E 012°55'3 8.7
2018-Feb-04 13:30N 66°18' E 012°56'4 8.3
2018-Feb-04 13:00N 66°22' E 012°58'5 8.8
2018-Feb-04 12:30N 66°27' E 012°59'4 8.4
2018-Feb-04 12:00N 66°31' E 012°58'4 7.4
2018-Feb-04 11:30N 66°34' E 013°04'13 8.4
2018-Feb-04 09:59N 66°46' E 013°13'9 8.4
2018-Feb-04 08:58N 66°53' E 013°24'4 7.8
2018-Feb-04 08:25N 66°57' E 013°29'3 8.5
2018-Feb-04 08:00N 66°59' E 013°36'5 9.0
2018-Feb-04 07:30N 67°02' E 013°46'4 9.0
2018-Feb-04 07:00N 67°05' E 013°54'4 8.8
2018-Feb-04 06:30N 67°08' E 014°01'4 8.6
2018-Feb-04 06:01N 67°12' E 014°07'5 9.2
2018-Feb-04 05:30N 67°15' E 014°15'3 6.9
2018-Feb-04 05:00N 67°17' E 014°23'0 0.0
2018-Feb-04 04:30N 67°17' E 014°23'0 0.0
2018-Feb-04 04:00N 67°17' E 014°23'0 0.0
2018-Feb-04 03:30N 67°17' E 014°23'0 0.0
2018-Feb-04 03:00N 67°17' E 014°23'0 0.0
2018-Feb-04 02:30N 67°17' E 014°23'0 0.0
2018-Feb-04 02:00N 67°17' E 014°23'0 0.0
2018-Feb-04 01:30N 67°17' E 014°23'0 0.0
2018-Feb-04 01:00N 67°17' E 014°23'0 0.0
2018-Feb-04 00:30N 67°17' E 014°23'0 0.0
2018-Feb-04 00:01N 67°17' E 014°23'0 0.0
2018-Feb-03 23:30N 67°17' E 014°23'0 0.0
2018-Feb-03 23:00N 67°17' E 014°23'0 0.0
2018-Feb-03 22:30N 67°17' E 014°23'0 0.0
2018-Feb-03 22:00N 67°17' E 014°23'0 0.0
2018-Feb-03 21:30N 67°17' E 014°23'0 0.0
2018-Feb-03 21:00N 67°17' E 014°23'0 0.0
2018-Feb-03 20:30N 67°17' E 014°23'0 0.0
2018-Feb-03 20:00N 67°17' E 014°23'11 7.2
2018-Feb-03 18:30N 67°28' E 014°24'4 8.0
2018-Feb-03 18:01N 67°32' E 014°21'4 8.2
2018-Feb-03 17:30N 67°36' E 014°18'4 8.5
2018-Feb-03 17:00N 67°40' E 014°15'10 8.4
2018-Feb-03 15:49N 67°49' E 014°25'172 7.9
2018-Feb-02 17:55N 69°58' E 019°40'5 6.4
2018-Feb-02 17:05N 70°03' E 019°33'1 7.1
2018-Feb-02 16:59N 70°02' E 019°33'2 4.8
2018-Feb-02 16:30N 69°60' E 019°33'0 0.2
2018-Feb-02 14:30N 69°60' E 019°34'0 0.0
2018-Feb-01 02:42N 69°60' E 019°34'0 0.0
2018-Feb-01 01:56N 69°60' E 019°34'0 0.0
2018-Feb-01 01:26N 69°60' E 019°34'  

Dump ship's entire track history